createdAt,value
2023-02-09T00:01:26.094Z,8.05
2023-02-09T00:03:54.515Z,8.88
2023-02-09T00:06:24.092Z,8.20
2023-02-09T00:08:53.748Z,8.77
2023-02-09T00:11:43.845Z,8.85
2023-02-09T00:14:10.755Z,7.68
2023-02-09T00:16:38.619Z,8.05
2023-02-09T00:19:06.475Z,8.55
2023-02-09T00:21:34.402Z,8.57
2023-02-09T00:24:03.486Z,8.45
2023-02-09T00:26:31.312Z,8.77
2023-02-09T00:28:59.074Z,8.38
2023-02-09T00:31:27.233Z,9.10
2023-02-09T00:33:55.054Z,8.88
2023-02-09T00:36:22.861Z,7.97
2023-02-09T00:38:50.588Z,8.85
2023-02-09T00:41:40.703Z,8.88
2023-02-09T00:44:08.529Z,8.10
2023-02-09T00:46:36.351Z,7.90
2023-02-09T00:49:04.515Z,8.77
2023-02-09T00:51:32.283Z,9.05
2023-02-09T00:54:00.060Z,8.43
2023-02-09T00:56:29.156Z,9.40
2023-02-09T00:58:56.905Z,9.93
2023-02-09T01:01:24.647Z,9.15
2023-02-09T01:03:52.412Z,9.20
2023-02-09T01:06:20.158Z,10.52
2023-02-09T01:08:47.902Z,10.35
2023-02-09T01:11:17.539Z,10.68
2023-02-09T01:13:47.293Z,9.68
2023-02-09T01:16:17.536Z,9.40
2023-02-09T01:18:45.687Z,9.35
2023-02-09T01:21:15.266Z,10.02
2023-02-09T01:23:43.350Z,8.93
2023-02-09T01:26:12.473Z,9.50
2023-02-09T01:28:40.328Z,9.50
2023-02-09T01:31:21.493Z,8.75
2023-02-09T01:33:49.501Z,9.57
2023-02-09T01:36:17.428Z,9.20
2023-02-09T01:38:45.184Z,9.88
2023-02-09T01:41:13.061Z,9.25
2023-02-09T01:44:06.679Z,8.63
2023-02-09T01:46:37.694Z,9.02
2023-02-09T01:49:09.529Z,9.73
2023-02-09T01:51:39.714Z,9.35
2023-02-09T01:54:10.366Z,9.38
2023-02-09T01:56:42.731Z,9.52
2023-02-09T01:59:11.434Z,9.32
2023-02-09T02:01:42.132Z,9.48
2023-02-09T02:04:10.031Z,9.43
2023-02-09T02:06:38.563Z,9.15
2023-02-09T02:09:12.328Z,8.73
2023-02-09T02:14:28.890Z,9.23
2023-02-09T02:17:08.070Z,9.85
2023-02-09T02:20:11.091Z,9.02
2023-02-09T02:23:13.977Z,9.52
2023-02-09T02:26:32.119Z,8.48
2023-02-09T02:29:23.125Z,9.27
2023-02-09T02:32:10.096Z,10.05
2023-02-09T02:34:45.674Z,9.45
2023-02-09T02:37:23.297Z,9.48
2023-02-09T02:39:55.977Z,8.80
2023-02-09T02:42:52.891Z,9.23
2023-02-09T02:45:30.145Z,9.35
2023-02-09T02:48:06.467Z,9.63
2023-02-09T02:50:37.612Z,9.23
2023-02-09T02:53:08.001Z,10.32
2023-02-09T02:55:38.894Z,9.95
2023-02-09T02:58:12.177Z,9.52
2023-02-09T03:00:43.878Z,9.88
2023-02-09T03:03:15.761Z,9.05
2023-02-09T03:05:45.490Z,10.20
2023-02-09T03:08:13.268Z,9.15
2023-02-09T03:10:42.873Z,9.05
2023-02-09T03:13:39.112Z,9.25
2023-02-09T03:16:21.523Z,8.10
2023-02-09T03:19:04.246Z,9.55
2023-02-09T03:21:43.118Z,10.10
2023-02-09T03:24:20.721Z,9.10
2023-02-09T03:26:53.133Z,9.13
2023-02-09T03:29:23.585Z,8.75
2023-02-09T03:31:52.117Z,9.82
2023-02-09T03:34:21.558Z,8.88
2023-02-09T03:36:53.330Z,9.65
2023-02-09T03:39:21.090Z,9.82
2023-02-09T03:41:48.876Z,9.27
2023-02-09T03:44:28.558Z,8.98
2023-02-09T03:46:58.453Z,9.18
2023-02-09T03:49:30.295Z,9.05
2023-02-09T03:52:00.650Z,9.27
2023-02-09T03:54:28.793Z,9.02
2023-02-09T03:56:56.867Z,10.43
2023-02-09T03:59:26.387Z,10.80
2023-02-09T04:01:54.832Z,12.15
2023-02-09T04:04:22.918Z,9.90
2023-02-09T04:06:52.467Z,8.82
2023-02-09T04:09:20.503Z,8.25
2023-02-09T04:11:48.277Z,9.52
2023-02-09T04:14:16.516Z,8.77
2023-02-09T04:16:44.507Z,8.85
2023-02-09T04:19:12.389Z,8.48
2023-02-09T04:21:40.463Z,8.20
2023-02-09T04:24:10.277Z,7.75
2023-02-09T04:26:38.113Z,8.30
2023-02-09T04:29:05.951Z,8.82
2023-02-09T04:31:34.891Z,9.95
2023-02-09T04:34:03.147Z,8.43
2023-02-09T04:36:31.234Z,8.60
2023-02-09T04:38:59.042Z,9.27
2023-02-09T04:41:28.243Z,7.68
2023-02-09T04:43:55.967Z,7.65
2023-02-09T04:46:23.730Z,8.35
2023-02-09T04:48:51.563Z,11.25
2023-02-09T04:51:19.409Z,9.32
2023-02-09T04:53:47.120Z,9.32
2023-02-09T04:56:16.436Z,8.25
2023-02-09T04:59:03.778Z,8.45
2023-02-09T05:01:32.911Z,7.88
2023-02-09T05:04:00.762Z,9.07
2023-02-09T05:06:28.515Z,7.63
2023-02-09T05:08:56.239Z,8.85
2023-02-09T05:11:25.589Z,7.40
2023-02-09T05:13:54.837Z,9.05
2023-02-09T05:16:22.745Z,8.18
2023-02-09T05:18:51.099Z,7.70
2023-02-09T05:21:18.847Z,8.70
2023-02-09T05:23:46.618Z,8.15
2023-02-09T05:26:14.353Z,8.55
2023-02-09T05:28:42.121Z,7.75
2023-02-09T05:31:11.290Z,7.80
2023-02-09T05:33:39.188Z,8.48
2023-02-09T05:36:09.528Z,7.68
2023-02-09T05:38:37.618Z,8.18
2023-02-09T05:41:06.393Z,8.85
2023-02-09T05:43:34.419Z,8.35
2023-02-09T05:46:02.260Z,8.77
2023-02-09T05:48:31.399Z,8.05
2023-02-09T05:50:59.156Z,8.10
2023-02-09T05:53:26.906Z,8.13
2023-02-09T05:55:54.628Z,8.52
2023-02-09T05:58:22.400Z,7.70
2023-02-09T06:00:50.164Z,9.02
2023-02-09T06:03:18.057Z,8.43
2023-02-09T06:05:47.385Z,8.98
2023-02-09T06:08:15.113Z,8.73
2023-02-09T06:10:42.827Z,8.50
2023-02-09T06:13:10.556Z,7.80
2023-02-09T06:15:38.410Z,8.05
2023-02-09T06:18:06.343Z,8.35
2023-02-09T06:20:34.144Z,8.85
2023-02-09T06:23:03.296Z,8.32
2023-02-09T06:25:31.064Z,8.00
2023-02-09T06:27:58.861Z,7.97
2023-02-09T06:30:26.716Z,7.57
2023-02-09T06:32:54.512Z,8.10
2023-02-09T06:35:22.357Z,12.23
2023-02-09T06:37:50.364Z,11.38
2023-02-09T06:40:21.824Z,8.43
2023-02-09T06:42:49.551Z,8.20
2023-02-09T06:45:18.723Z,9.23
2023-02-09T06:47:47.403Z,8.48
2023-02-09T06:50:17.004Z,8.48
2023-02-09T06:52:45.110Z,11.48
2023-02-09T06:55:13.349Z,11.52
2023-02-09T06:57:42.538Z,8.95
2023-02-09T07:00:12.713Z,7.90
2023-02-09T07:02:42.565Z,8.85
2023-02-09T07:05:10.931Z,9.38
2023-02-09T07:07:39.648Z,9.77
2023-02-09T07:10:09.499Z,9.10
2023-02-09T07:12:38.031Z,9.23
2023-02-09T07:15:09.475Z,11.15
2023-02-09T07:17:37.244Z,11.77
2023-02-09T07:20:06.003Z,11.13
2023-02-09T07:22:34.515Z,9.45
2023-02-09T07:25:02.326Z,9.50
2023-02-09T07:27:30.055Z,8.98
2023-02-09T07:29:59.920Z,9.60
2023-02-09T07:32:29.916Z,11.95
2023-02-09T07:34:57.663Z,12.77
2023-02-09T07:37:25.442Z,9.15
2023-02-09T07:39:53.184Z,9.70
2023-02-09T07:42:23.101Z,9.55
2023-02-09T07:44:51.145Z,9.88
2023-02-09T07:47:18.890Z,10.05
2023-02-09T07:49:47.971Z,10.10
2023-02-09T07:52:15.890Z,9.75
2023-02-09T07:54:43.797Z,9.00
2023-02-09T07:57:13.572Z,9.10
2023-02-09T07:59:41.423Z,8.68
2023-02-09T08:02:17.868Z,8.43
2023-02-09T08:04:46.179Z,9.45
2023-02-09T08:07:15.394Z,8.25
2023-02-09T08:09:45.087Z,8.57
2023-02-09T08:12:13.056Z,8.95
2023-02-09T08:14:48.093Z,9.93
2023-02-09T08:17:25.905Z,9.32
2023-02-09T08:19:56.415Z,9.38
2023-02-09T08:22:29.150Z,10.60
2023-02-09T08:24:57.877Z,9.63
2023-02-09T08:27:25.843Z,10.30
2023-02-09T08:29:53.658Z,9.35
2023-02-09T08:32:21.372Z,9.45
2023-02-09T08:34:49.192Z,10.05
2023-02-09T08:37:16.931Z,9.05
2023-02-09T08:39:46.725Z,10.07
2023-02-09T08:42:14.529Z,9.10
2023-02-09T08:44:42.312Z,9.68
2023-02-09T08:47:10.124Z,9.50
2023-02-09T08:49:38.045Z,9.15
2023-02-09T08:52:08.258Z,8.90
2023-02-09T08:54:36.222Z,8.77
2023-02-09T08:57:05.504Z,10.23
2023-02-09T08:59:33.946Z,9.50
2023-02-09T09:02:01.765Z,9.45
2023-02-09T09:04:29.559Z,8.88
2023-02-09T09:06:57.361Z,9.32
2023-02-09T09:09:25.167Z,8.93
2023-02-09T09:11:53.005Z,9.48
2023-02-09T09:14:22.168Z,8.93
2023-02-09T09:16:50.018Z,8.00
2023-02-09T09:19:17.827Z,8.57
2023-02-09T09:21:45.584Z,9.32
2023-02-09T09:24:13.594Z,9.30
2023-02-09T09:26:41.364Z,9.13
2023-02-09T09:29:10.769Z,9.85
2023-02-09T09:31:40.115Z,9.40
2023-02-09T09:34:07.983Z,9.82
2023-02-09T09:36:35.757Z,8.75
2023-02-09T09:39:03.534Z,9.23
2023-02-09T09:41:34.628Z,9.73
2023-02-09T09:44:04.482Z,9.30
2023-02-09T09:46:37.688Z,9.70
2023-02-09T09:49:07.339Z,9.55
2023-02-09T09:51:40.599Z,10.10
2023-02-09T09:54:15.261Z,9.85
2023-02-09T09:56:43.097Z,9.93
2023-02-09T09:59:17.844Z,9.55
2023-02-09T10:01:46.455Z,12.98
2023-02-09T10:04:16.876Z,10.48
2023-02-09T10:06:47.726Z,10.52
2023-02-09T10:09:29.818Z,10.25
2023-02-09T10:12:13.033Z,10.30
2023-02-09T10:14:40.838Z,10.17
2023-02-09T10:17:09.155Z,10.55
2023-02-09T10:19:38.283Z,11.10
2023-02-09T10:22:06.432Z,12.68
2023-02-09T10:24:36.220Z,11.65
2023-02-09T10:27:14.989Z,10.98
2023-02-09T10:29:43.727Z,10.98
2023-02-09T10:32:16.661Z,11.23
2023-02-09T10:34:48.977Z,11.57
2023-02-09T10:37:23.854Z,10.88
2023-02-09T10:40:07.175Z,10.95
2023-02-09T10:42:37.225Z,10.90
2023-02-09T10:45:10.230Z,11.48
2023-02-09T10:47:38.068Z,11.57
2023-02-09T10:50:28.156Z,10.80
2023-02-09T10:52:59.299Z,12.05
2023-02-09T10:55:34.395Z,12.50
2023-02-09T10:58:08.100Z,12.68
2023-02-09T11:00:42.639Z,13.27
2023-02-09T11:03:18.318Z,13.63
2023-02-09T11:05:48.762Z,13.23
2023-02-09T11:08:22.977Z,15.02
2023-02-09T11:11:05.660Z,14.77
2023-02-09T11:13:34.992Z,12.93
2023-02-09T11:16:44.636Z,13.00
2023-02-09T11:19:23.487Z,12.27
2023-02-09T11:22:02.392Z,12.32
2023-02-09T11:24:46.586Z,12.82
2023-02-09T11:30:00.574Z,12.68
2023-02-09T11:32:35.427Z,13.10
2023-02-09T11:35:11.105Z,12.90
2023-02-09T11:37:50.841Z,14.32
2023-02-09T11:40:30.359Z,13.55
2023-02-09T11:43:12.687Z,13.23
2023-02-09T11:45:44.602Z,12.60
2023-02-09T11:48:17.723Z,12.98
2023-02-09T11:50:57.752Z,17.45
2023-02-09T11:53:35.956Z,14.63
2023-02-09T11:56:06.073Z,14.20
2023-02-09T11:58:41.496Z,12.80
2023-02-09T12:01:20.123Z,13.32
2023-02-09T12:04:00.287Z,13.65
2023-02-09T12:06:33.140Z,13.32
2023-02-09T12:09:11.670Z,14.10
2023-02-09T12:11:49.693Z,14.20
2023-02-09T12:14:49.106Z,13.50
2023-02-09T12:17:22.102Z,14.30
2023-02-09T12:19:58.270Z,14.05
2023-02-09T12:22:49.708Z,14.88
2023-02-09T12:25:35.938Z,14.95
2023-02-09T12:28:17.820Z,14.80
2023-02-09T12:31:07.640Z,14.80
2023-02-09T12:33:38.186Z,14.73
2023-02-09T12:36:26.161Z,15.35
2023-02-09T12:39:06.089Z,14.98
2023-02-09T12:42:07.288Z,15.43
2023-02-09T12:44:55.717Z,15.68
2023-02-09T12:47:58.890Z,15.80
2023-02-09T12:50:33.942Z,15.90
2023-02-09T12:53:34.838Z,15.10
2023-02-09T12:56:23.488Z,14.52
2023-02-09T12:58:56.924Z,15.43
2023-02-09T13:02:05.042Z,15.05
2023-02-09T13:04:36.718Z,15.45
2023-02-09T13:07:11.375Z,16.30
2023-02-09T13:09:41.807Z,14.85
2023-02-09T13:12:14.833Z,15.90
2023-02-09T13:14:44.864Z,14.43
2023-02-09T13:17:32.258Z,15.63
2023-02-09T13:20:08.353Z,15.30
2023-02-09T13:22:57.996Z,16.00
2023-02-09T13:25:32.381Z,15.63
2023-02-09T13:28:10.335Z,19.48
2023-02-09T13:30:38.244Z,15.77
2023-02-09T13:33:21.866Z,16.25
2023-02-09T13:36:08.954Z,15.15
2023-02-09T13:38:37.557Z,16.27
2023-02-09T13:41:07.421Z,16.90
2023-02-09T13:43:38.308Z,15.88
2023-02-09T13:46:06.531Z,16.52
2023-02-09T13:48:38.952Z,16.73
2023-02-09T13:51:16.729Z,16.25
2023-02-09T13:53:57.049Z,17.23
2023-02-09T13:56:24.976Z,17.58
2023-02-09T13:58:53.339Z,16.48
2023-02-09T14:01:29.764Z,17.67
2023-02-09T14:04:05.546Z,17.13
2023-02-09T14:06:36.716Z,16.45
2023-02-09T14:09:06.463Z,17.25
2023-02-09T14:11:42.603Z,16.15
2023-02-09T14:14:15.887Z,18.08
2023-02-09T14:16:53.132Z,18.75
2023-02-09T14:19:28.945Z,18.55
2023-02-09T14:21:56.767Z,17.05
2023-02-09T14:24:25.969Z,17.70
2023-02-09T14:26:56.690Z,18.73
2023-02-09T14:29:27.786Z,17.63
2023-02-09T14:31:57.468Z,18.67
2023-02-09T14:34:33.209Z,17.35
2023-02-09T14:37:03.895Z,17.38
2023-02-09T14:39:32.464Z,18.02
2023-02-09T14:42:18.000Z,18.67
2023-02-09T14:44:47.281Z,17.27
2023-02-09T14:47:29.658Z,18.52
2023-02-09T14:49:59.609Z,26.75
2023-02-09T14:52:28.968Z,20.17
2023-02-09T14:55:00.007Z,19.58
2023-02-09T14:57:30.490Z,30.33
2023-02-09T14:59:58.305Z,20.35
2023-02-09T15:02:28.457Z,22.85
2023-02-09T15:04:56.540Z,28.38
2023-02-09T15:07:33.070Z,21.55
2023-02-09T15:10:00.827Z,20.52
2023-02-09T15:12:30.246Z,21.08
2023-02-09T15:15:00.297Z,20.15
2023-02-09T15:17:30.012Z,19.42
2023-02-09T15:19:59.531Z,19.05
2023-02-09T15:22:28.770Z,20.15
2023-02-09T15:24:57.580Z,20.08
2023-02-09T15:27:30.148Z,20.48
2023-02-09T15:30:04.083Z,20.92
2023-02-09T15:32:34.621Z,20.08
2023-02-09T15:35:02.428Z,21.13
2023-02-09T15:37:36.256Z,20.38
2023-02-09T15:43:00.601Z,20.40
2023-02-09T15:45:47.995Z,19.88
2023-02-09T15:48:18.821Z,20.70
2023-02-09T15:50:50.672Z,20.48
2023-02-09T15:53:21.315Z,19.27
2023-02-09T15:55:49.490Z,21.67
2023-02-09T15:58:19.899Z,21.95
2023-02-09T16:00:47.864Z,20.85
2023-02-09T16:03:17.906Z,22.48
2023-02-09T16:05:46.757Z,21.05
2023-02-09T16:08:21.305Z,21.83
2023-02-09T16:10:49.587Z,22.05
2023-02-09T16:13:18.674Z,21.92
2023-02-09T16:15:46.720Z,21.25
2023-02-09T16:18:14.978Z,21.65
2023-02-09T16:20:47.181Z,22.75
2023-02-09T16:23:21.010Z,22.08
2023-02-09T16:25:52.521Z,22.15
2023-02-09T16:28:21.293Z,22.10
2023-02-09T16:30:52.220Z,22.35
2023-02-09T16:33:20.592Z,22.20
2023-02-09T16:35:54.328Z,21.98
2023-02-09T16:38:23.816Z,22.63
2023-02-09T16:40:53.427Z,21.90
2023-02-09T16:43:23.694Z,22.38
2023-02-09T16:46:02.807Z,23.17
2023-02-09T16:48:34.565Z,24.45
2023-02-09T16:51:02.663Z,21.95
2023-02-09T16:53:33.823Z,23.48
2023-02-09T16:56:04.889Z,26.90
2023-02-09T16:58:33.004Z,25.85
2023-02-09T17:01:00.901Z,28.65
2023-02-09T17:03:34.499Z,28.15
2023-02-09T17:06:03.154Z,24.83
2023-02-09T17:08:32.985Z,24.02
2023-02-09T17:11:04.413Z,25.85
2023-02-09T17:13:32.433Z,25.40
2023-02-09T17:16:02.942Z,27.65
2023-02-09T17:18:33.676Z,27.85
2023-02-09T17:21:03.687Z,26.95
2023-02-09T17:23:32.013Z,24.50
2023-02-09T17:26:01.847Z,23.75
2023-02-09T17:28:29.826Z,25.50
2023-02-09T17:31:00.190Z,24.00
2023-02-09T17:33:29.892Z,24.13
2023-02-09T17:38:47.690Z,24.70
2023-02-09T17:41:19.452Z,24.02
2023-02-09T17:43:47.889Z,25.40
2023-02-09T17:46:20.434Z,27.23
2023-02-09T17:48:49.105Z,27.10
2023-02-09T17:51:21.715Z,27.92
2023-02-09T17:53:50.045Z,26.13
2023-02-09T17:56:19.456Z,24.75
2023-02-09T17:58:48.032Z,24.95
2023-02-09T18:01:26.422Z,24.17
2023-02-09T18:03:55.038Z,26.00
2023-02-09T18:06:33.711Z,23.98
2023-02-09T18:09:02.498Z,24.30
2023-02-09T18:11:43.690Z,26.88
2023-02-09T18:14:13.403Z,24.83
2023-02-09T18:16:42.765Z,25.48
2023-02-09T18:19:11.593Z,23.63
2023-02-09T18:21:40.005Z,24.33
2023-02-09T18:24:08.464Z,23.92
2023-02-09T18:26:36.175Z,24.52
2023-02-09T18:29:05.314Z,27.17
2023-02-09T18:31:33.162Z,28.40
2023-02-09T18:34:00.942Z,31.58
2023-02-09T18:36:28.776Z,27.52
2023-02-09T18:38:56.599Z,30.25
2023-02-09T18:41:24.724Z,30.35
2023-02-09T18:43:54.278Z,26.70
2023-02-09T18:46:24.515Z,26.42
2023-02-09T18:48:52.397Z,25.33
2023-02-09T18:51:20.198Z,30.02
2023-02-09T18:53:48.605Z,21.92
2023-02-09T18:56:19.544Z,27.77
2023-02-09T18:58:48.539Z,21.98
2023-02-09T19:01:16.402Z,25.80
2023-02-09T19:03:46.797Z,24.98
2023-02-09T19:06:14.544Z,27.52
2023-02-09T19:08:42.322Z,26.23
2023-02-09T19:11:16.032Z,25.80
2023-02-09T19:14:03.885Z,23.75
2023-02-09T19:16:31.770Z,17.05
2023-02-09T19:19:01.285Z,23.92
2023-02-09T19:21:29.564Z,24.27
2023-02-09T19:23:57.289Z,28.88
2023-02-09T19:26:25.196Z,27.67
2023-02-09T19:28:53.057Z,27.13
2023-02-09T19:31:20.913Z,26.02
2023-02-09T19:33:48.745Z,24.55
2023-02-09T19:36:17.859Z,27.40
2023-02-09T19:38:45.646Z,23.75
2023-02-09T19:41:13.675Z,26.45
2023-02-09T19:43:42.142Z,27.08
2023-02-09T19:46:11.138Z,28.98
2023-02-09T19:48:40.251Z,27.73
2023-02-09T19:51:09.267Z,37.42
2023-02-09T19:53:38.438Z,30.40
2023-02-09T19:56:06.669Z,27.98
2023-02-09T19:58:34.467Z,28.05
2023-02-09T20:01:02.357Z,28.85
2023-02-09T20:03:31.072Z,27.50
2023-02-09T20:05:58.844Z,29.15
2023-02-09T20:08:26.596Z,28.05
2023-02-09T20:10:55.709Z,26.50
2023-02-09T20:13:23.531Z,27.35
2023-02-09T20:15:51.312Z,28.52
2023-02-09T20:18:19.756Z,26.13
2023-02-09T20:20:47.851Z,27.60
2023-02-09T20:23:16.280Z,28.65
2023-02-09T20:25:44.812Z,27.73
2023-02-09T20:28:13.993Z,24.15
2023-02-09T20:30:42.935Z,27.25
2023-02-09T20:33:13.292Z,25.52
2023-02-09T20:35:41.605Z,25.48
2023-02-09T20:38:10.038Z,25.98
2023-02-09T20:40:37.876Z,30.33
2023-02-09T20:43:23.255Z,29.98
2023-02-09T20:46:12.461Z,31.42
2023-02-09T20:48:40.342Z,26.58
2023-02-09T20:51:08.258Z,25.25
2023-02-09T20:53:35.990Z,25.23
2023-02-09T20:56:03.787Z,25.98
2023-02-09T20:58:31.536Z,26.92
2023-02-09T21:01:00.678Z,25.60
2023-02-09T21:03:28.516Z,23.75
2023-02-09T21:05:56.266Z,26.38
2023-02-09T21:08:24.031Z,26.20
2023-02-09T21:10:56.348Z,28.23
2023-02-09T21:13:24.198Z,25.83
2023-02-09T21:15:52.038Z,29.48
2023-02-09T21:18:22.023Z,26.92
2023-02-09T21:20:50.116Z,28.25
2023-02-09T21:23:18.913Z,20.55
2023-02-09T21:25:46.841Z,28.70
2023-02-09T21:28:15.079Z,32.67
2023-02-09T21:30:43.704Z,28.35
2023-02-09T21:33:11.595Z,26.70
2023-02-09T21:35:41.951Z,21.13
2023-02-09T21:38:09.706Z,25.17
2023-02-09T21:40:37.573Z,24.67
2023-02-09T21:43:05.388Z,23.88
2023-02-09T21:45:33.330Z,27.40
2023-02-09T21:48:01.206Z,27.33
2023-02-09T21:50:28.933Z,27.23
2023-02-09T21:52:59.435Z,23.95
2023-02-09T21:55:27.230Z,24.23
2023-02-09T21:57:55.115Z,22.77
2023-02-09T22:00:22.881Z,24.20
2023-02-09T22:02:53.337Z,22.70
2023-02-09T22:05:21.544Z,23.65
2023-02-09T22:07:49.934Z,26.55
2023-02-09T22:10:19.248Z,25.63
2023-02-09T22:12:47.045Z,25.52
2023-02-09T22:15:15.168Z,24.77
2023-02-09T22:17:42.919Z,23.42
2023-02-09T22:20:11.865Z,22.95
2023-02-09T22:22:40.507Z,23.27
2023-02-09T22:25:09.347Z,22.08
2023-02-09T22:27:38.502Z,22.60
2023-02-09T22:30:06.707Z,20.50
2023-02-09T22:32:34.505Z,21.73
2023-02-09T22:35:02.247Z,24.05
2023-02-09T22:37:29.978Z,26.38
2023-02-09T22:39:57.789Z,22.83
2023-02-09T22:42:25.742Z,21.52
2023-02-09T22:44:54.862Z,20.58
2023-02-09T22:47:22.612Z,21.98
2023-02-09T22:49:50.379Z,20.80
2023-02-09T22:52:18.118Z,19.27
2023-02-09T22:54:45.845Z,21.05
2023-02-09T22:57:13.645Z,19.17
2023-02-09T22:59:41.426Z,19.48
2023-02-09T23:02:12.469Z,20.95
2023-02-09T23:04:40.444Z,24.95
2023-02-09T23:07:08.232Z,22.08
2023-02-09T23:09:36.177Z,20.20
2023-02-09T23:12:04.231Z,18.77
2023-02-09T23:14:32.029Z,18.55
2023-02-09T23:17:00.513Z,18.50
2023-02-09T23:19:29.681Z,18.15
2023-02-09T23:21:57.520Z,17.60
2023-02-09T23:24:25.357Z,17.73
2023-02-09T23:26:54.395Z,17.30
2023-02-09T23:29:23.061Z,16.65
2023-02-09T23:31:50.822Z,18.60
2023-02-09T23:34:20.243Z,18.35
2023-02-09T23:36:49.688Z,17.80
2023-02-09T23:39:19.212Z,18.02
2023-02-09T23:41:47.615Z,17.95
2023-02-09T23:44:15.434Z,19.20
2023-02-09T23:46:43.318Z,17.40
2023-02-09T23:49:11.732Z,15.98
2023-02-09T23:51:39.491Z,16.30
2023-02-09T23:54:09.021Z,15.95
2023-02-09T23:56:37.878Z,16.77
2023-02-09T23:59:07.364Z,16.08
